Time;durP1;ratioP1;P1;durP2;ratioP2;P2;SDS_P1;SDS_P2;PMS_P1;PMS_P2;Temp;Humidity;BMP_temperature;BMP_pressure;BME280_temperature;BME280_humidity;BME280_pressure;Samples;Min_cycle;Max_cycle;Signal;HPM_P1;HPM_P2
2023/11/27 00:01:17;;;;;;;7.13;6.57;;;4.80;99.90;;;;;;5050251;28;20205;-60
2023/11/27 00:03:46;;;;;;;9.15;6.40;;;4.80;99.90;;;;;;5050768;28;20213;-61
2023/11/27 00:06:12;;;;;;;7.97;6.82;;;4.80;99.90;;;;;;5050321;28;20230;-61
2023/11/27 00:08:40;;;;;;;7.68;6.47;;;4.80;99.90;;;;;;5050434;28;20648;-60
2023/11/27 00:11:07;;;;;;;8.35;6.60;;;4.80;99.90;;;;;;5050550;28;20226;-61
2023/11/27 00:13:35;;;;;;;10.82;7.20;;;4.90;99.90;;;;;;5050715;28;20212;-61
2023/11/27 00:16:02;;;;;;;9.77;7.05;;;4.80;99.90;;;;;;5050286;28;20237;-61
2023/11/27 00:18:31;;;;;;;9.43;5.68;;;4.80;99.90;;;;;;5050893;28;20218;-61
2023/11/27 00:20:58;;;;;;;9.00;5.55;;;4.90;99.90;;;;;;5050905;28;20202;-61
2023/11/27 00:23:25;;;;;;;6.63;5.47;;;4.90;99.90;;;;;;5051227;28;20766;-61
2023/11/27 00:25:52;;;;;;;9.63;6.03;;;4.90;99.90;;;;;;5050615;28;20234;-60
2023/11/27 00:28:19;;;;;;;7.97;5.40;;;4.90;99.90;;;;;;5050274;28;20202;-61
2023/11/27 00:30:46;;;;;;;5.80;5.10;;;4.80;99.90;;;;;;5050598;28;20300;-61
2023/11/27 00:33:13;;;;;;;6.28;4.93;;;4.90;99.90;;;;;;5050736;28;20229;-61
2023/11/27 00:35:42;;;;;;;8.00;7.30;;;4.80;99.90;;;;;;5050590;28;20788;-61
2023/11/27 00:38:08;;;;;;;10.30;6.00;;;4.80;99.90;;;;;;5051224;28;20245;-61
2023/11/27 00:40:37;;;;;;;7.82;4.95;;;4.80;99.90;;;;;;5051283;28;20225;-61
2023/11/27 00:43:05;;;;;;;5.80;5.05;;;4.80;99.90;;;;;;5051798;28;20305;-61
2023/11/27 00:45:32;;;;;;;8.45;5.35;;;4.80;99.90;;;;;;5050610;28;20728;-61
2023/11/27 00:48:00;;;;;;;7.82;6.45;;;4.80;99.90;;;;;;5048925;28;20256;-61
2023/11/27 00:50:27;;;;;;;7.30;4.78;;;4.80;99.90;;;;;;5050569;28;20213;-59
2023/11/27 00:52:55;;;;;;;5.60;5.05;;;4.80;99.90;;;;;;5051163;28;20325;-61
2023/11/27 00:55:22;;;;;;;7.00;4.90;;;4.80;99.90;;;;;;5051095;28;20222;-59
2023/11/27 00:57:48;;;;;;;7.57;5.07;;;4.80;99.90;;;;;;5050674;28;20779;-61
2023/11/27 01:00:17;;;;;;;6.75;4.65;;;4.80;99.90;;;;;;5051013;28;20234;-61
2023/11/27 01:02:45;;;;;;;7.68;4.97;;;4.80;99.90;;;;;;5050820;28;20199;-61
2023/11/27 01:05:14;;;;;;;6.03;5.10;;;4.80;99.90;;;;;;5050604;28;20222;-61
2023/11/27 01:07:41;;;;;;;5.05;4.55;;;4.80;99.90;;;;;;5050870;28;20297;-61
2023/11/27 01:10:10;;;;;;;6.80;6.20;;;4.80;99.90;;;;;;5049884;28;20215;-62
2023/11/27 01:12:42;;;;;;;4.90;4.50;;;4.80;99.90;;;;;;5051899;28;20226;-60
2023/11/27 01:15:11;;;;;;;4.03;3.83;;;4.80;99.90;;;;;;5053913;28;20210;-62
2023/11/27 01:17:38;;;;;;;6.72;6.10;;;4.80;99.90;;;;;;5054600;28;20255;-61
2023/11/27 01:20:07;;;;;;;7.00;4.43;;;4.80;99.90;;;;;;5053749;28;20732;-61
2023/11/27 01:22:34;;;;;;;8.07;4.25;;;4.80;99.90;;;;;;5054980;28;20665;-61
2023/11/27 01:25:01;;;;;;;7.05;4.45;;;4.80;99.90;;;;;;5054539;28;20314;-60
2023/11/27 01:27:29;;;;;;;5.32;4.10;;;4.80;99.90;;;;;;5054444;28;20202;-61
2023/11/27 01:29:56;;;;;;;6.72;4.55;;;4.80;99.90;;;;;;5054348;28;20274;-61
2023/11/27 01:32:24;;;;;;;5.55;4.45;;;4.80;99.90;;;;;;5053216;28;20229;-61
2023/11/27 01:34:51;;;;;;;7.53;4.70;;;4.80;99.90;;;;;;5054048;28;20673;-60
2023/11/27 01:37:18;;;;;;;8.55;5.18;;;4.80;99.90;;;;;;5054575;28;20234;-59
2023/11/27 01:39:45;;;;;;;4.78;4.28;;;4.70;99.90;;;;;;5054109;28;20214;-60
2023/11/27 01:42:12;;;;;;;5.13;3.35;;;4.80;99.90;;;;;;5054437;28;20209;-61
2023/11/27 01:44:40;;;;;;;6.80;6.20;;;4.70;99.90;;;;;;5054567;28;20628;-61
2023/11/27 01:47:08;;;;;;;4.00;3.70;;;4.70;99.90;;;;;;5053515;28;20711;-61
2023/11/27 01:49:35;;;;;;;5.90;4.95;;;4.70;99.90;;;;;;5054105;28;20289;-61
2023/11/27 01:52:02;;;;;;;7.72;4.43;;;4.70;99.90;;;;;;5054290;28;20222;-61
2023/11/27 01:54:31;;;;;;;8.00;4.30;;;4.70;99.90;;;;;;5054169;28;20237;-61
2023/11/27 01:56:59;;;;;;;9.35;4.53;;;4.70;99.90;;;;;;5053674;28;20227;-61
2023/11/27 01:59:28;;;;;;;5.95;5.05;;;4.70;99.90;;;;;;5054008;28;20205;-61
2023/11/27 02:01:57;;;;;;;4.47;3.60;;;4.70;99.90;;;;;;5054102;28;20242;-61
2023/11/27 02:04:24;;;;;;;6.47;4.93;;;4.70;99.90;;;;;;5053571;28;20748;-61
2023/11/27 02:06:51;;;;;;;7.35;4.40;;;4.70;99.90;;;;;;5052984;28;20301;-61
2023/11/27 02:09:17;;;;;;;6.18;4.75;;;4.70;99.90;;;;;;5082824;22;20199;-61
2023/11/27 02:11:45;;;;;;;12.60;4.95;;;4.70;99.90;;;;;;5050738;28;20222;-60
2023/11/27 02:14:14;;;;;;;6.43;4.20;;;4.70;99.90;;;;;;5052515;28;20297;-61
2023/11/27 02:16:40;;;;;;;6.30;4.75;;;4.70;99.90;;;;;;5052506;28;20639;-60
2023/11/27 02:19:09;;;;;;;6.85;3.80;;;4.70;99.90;;;;;;5052790;28;20206;-60
2023/11/27 02:21:36;;;;;;;7.25;4.80;;;4.70;99.90;;;;;;5052894;28;20829;-61
2023/11/27 02:24:05;;;;;;;5.43;3.40;;;4.70;99.90;;;;;;5052224;28;20206;-61
2023/11/27 02:26:31;;;;;;;8.25;4.55;;;4.70;99.90;;;;;;5052397;28;20688;-61
2023/11/27 02:28:58;;;;;;;6.20;3.80;;;4.60;99.90;;;;;;5052821;28;20302;-59
2023/11/27 02:31:25;;;;;;;6.10;4.55;;;4.60;99.90;;;;;;5052521;28;20227;-61
2023/11/27 02:33:52;;;;;;;4.85;3.90;;;4.60;99.90;;;;;;5052610;28;20696;-60
2023/11/27 02:36:20;;;;;;;5.43;5.00;;;4.60;99.90;;;;;;5052420;28;20215;-59
2023/11/27 02:38:47;;;;;;;5.53;3.78;;;4.60;99.90;;;;;;5052599;28;20211;-59
2023/11/27 02:41:15;;;;;;;4.65;3.92;;;4.60;99.90;;;;;;5052661;28;20317;-62
2023/11/27 02:43:42;;;;;;;6.05;4.32;;;4.60;99.90;;;;;;5052519;28;20217;-61
2023/11/27 02:46:09;;;;;;;5.28;4.78;;;4.60;99.90;;;;;;5052349;28;20599;-61
2023/11/27 02:48:36;;;;;;;5.15;4.65;;;4.50;99.90;;;;;;5052226;28;20237;-61
2023/11/27 02:51:04;;;;;;;5.78;4.57;;;4.50;99.90;;;;;;5052424;28;20313;-59
2023/11/27 02:53:31;;;;;;;5.03;3.80;;;4.50;99.90;;;;;;5052337;28;20226;-60
2023/11/27 02:55:59;;;;;;;5.00;3.90;;;4.50;99.90;;;;;;5052385;28;20202;-61
2023/11/27 02:58:27;;;;;;;7.90;4.65;;;4.50;99.90;;;;;;5051995;28;20210;-61
2023/11/27 03:00:54;;;;;;;5.15;4.30;;;4.40;99.90;;;;;;5052008;28;20229;-61
2023/11/27 03:03:21;;;;;;;6.13;4.40;;;4.50;99.90;;;;;;5052155;28;20202;-61
2023/11/27 03:05:47;;;;;;;8.57;4.45;;;4.40;99.90;;;;;;5052087;28;20708;-61
2023/11/27 03:08:14;;;;;;;7.60;4.82;;;4.40;99.90;;;;;;5052126;28;20210;-61
2023/11/27 03:10:41;;;;;;;4.47;4.00;;;4.40;99.90;;;;;;5051853;28;20758;-61
2023/11/27 03:13:08;;;;;;;6.15;4.05;;;4.50;99.90;;;;;;5051986;28;20262;-62
2023/11/27 03:15:36;;;;;;;6.68;5.18;;;4.50;99.90;;;;;;5051813;28;20209;-62
2023/11/27 03:18:03;;;;;;;5.80;4.10;;;4.50;99.90;;;;;;5051641;28;20771;-62
2023/11/27 03:20:30;;;;;;;7.55;5.43;;;4.50;99.90;;;;;;5051664;28;20237;-61
2023/11/27 03:22:57;;;;;;;4.28;3.88;;;4.40;99.90;;;;;;5051711;28;20613;-62
2023/11/27 03:25:23;;;;;;;4.68;4.07;;;4.50;99.90;;;;;;5051785;28;20216;-61
2023/11/27 03:27:50;;;;;;;5.72;4.50;;;4.50;99.90;;;;;;5051378;28;20673;-61
2023/11/27 03:30:19;;;;;;;6.60;5.30;;;4.50;99.90;;;;;;5051586;28;20325;-62
2023/11/27 03:32:47;;;;;;;6.57;4.88;;;4.40;99.90;;;;;;5051436;28;20326;-61
2023/11/27 03:35:14;;;;;;;4.38;4.07;;;4.50;99.90;;;;;;5051390;28;20207;-62
2023/11/27 03:37:41;;;;;;;5.75;4.65;;;4.50;99.90;;;;;;5051456;28;20637;-62
2023/11/27 03:40:08;;;;;;;8.45;4.13;;;4.50;99.90;;;;;;5051586;28;20240;-62
2023/11/27 03:42:35;;;;;;;5.38;4.78;;;4.50;99.90;;;;;;5051520;28;20590;-62
2023/11/27 03:45:02;;;;;;;6.85;4.50;;;4.50;99.90;;;;;;5051345;28;20217;-61
2023/11/27 03:47:29;;;;;;;5.00;4.50;;;4.40;99.90;;;;;;5051307;28;20582;-61
2023/11/27 03:49:57;;;;;;;16.00;5.25;;;4.40;99.90;;;;;;5051238;28;20795;-60
2023/11/27 03:52:24;;;;;;;4.50;4.10;;;4.40;99.90;;;;;;5051133;28;20222;-62
2023/11/27 03:54:51;;;;;;;9.02;5.57;;;4.40;99.90;;;;;;5051317;28;20217;-62
2023/11/27 03:57:19;;;;;;;5.13;4.72;;;4.40;99.90;;;;;;5050990;28;20232;-61
2023/11/27 03:59:46;;;;;;;6.10;5.60;;;4.40;99.90;;;;;;5050829;28;20276;-61
2023/11/27 04:02:13;;;;;;;6.10;5.50;;;4.40;99.90;;;;;;5051248;28;20206;-62
2023/11/27 04:04:40;;;;;;;6.40;5.90;;;4.40;99.90;;;;;;5051108;28;20206;-62
2023/11/27 04:07:08;;;;;;;4.55;4.15;;;4.40;99.90;;;;;;5050969;28;20213;-62
2023/11/27 04:09:35;;;;;;;11.13;4.40;;;4.40;99.90;;;;;;5049741;28;20326;-62
2023/11/27 04:12:03;;;;;;;4.95;4.50;;;4.40;99.90;;;;;;5050909;28;20222;-62
2023/11/27 04:14:31;;;;;;;5.38;3.97;;;4.40;99.90;;;;;;5050931;28;20202;-61
2023/11/27 04:16:58;;;;;;;4.90;4.50;;;4.40;99.90;;;;;;5050987;28;20203;-62
2023/11/27 04:19:26;;;;;;;5.63;4.50;;;4.40;99.90;;;;;;5050926;28;20316;-62
2023/11/27 04:21:53;;;;;;;6.28;4.55;;;4.40;99.90;;;;;;5050940;28;20742;-61
2023/11/27 04:24:21;;;;;;;4.60;4.20;;;4.40;99.90;;;;;;5051005;28;20216;-61
2023/11/27 04:26:48;;;;;;;7.68;5.55;;;4.30;99.90;;;;;;5050640;28;20210;-61
2023/11/27 04:29:15;;;;;;;6.85;5.18;;;4.30;99.90;;;;;;5050773;28;20206;-62
2023/11/27 04:31:41;;;;;;;5.32;4.93;;;4.30;99.90;;;;;;5050799;28;20695;-61
2023/11/27 04:34:08;;;;;;;11.77;6.38;;;4.30;99.90;;;;;;5050900;28;20321;-61
2023/11/27 04:36:35;;;;;;;6.95;4.65;;;4.30;99.90;;;;;;5050554;28;20216;-61
2023/11/27 04:39:03;;;;;;;7.40;5.65;;;4.30;99.90;;;;;;5050289;28;20224;-61
2023/11/27 04:41:31;;;;;;;6.18;5.35;;;4.30;99.90;;;;;;5050658;28;20211;-62
2023/11/27 04:43:58;;;;;;;6.93;6.05;;;4.30;99.90;;;;;;5050935;28;20301;-61
2023/11/27 04:46:26;;;;;;;6.30;5.15;;;4.30;99.90;;;;;;5050750;28;20212;-62
2023/11/27 04:48:52;;;;;;;8.60;5.20;;;4.30;99.90;;;;;;5053424;28;20720;-62
2023/11/27 04:51:19;;;;;;;9.18;5.68;;;4.30;99.90;;;;;;5054468;28;20288;-61
2023/11/27 04:53:46;;;;;;;6.28;5.18;;;4.30;99.90;;;;;;5054386;28;20236;-61
2023/11/27 04:56:13;;;;;;;7.22;6.53;;;4.30;99.90;;;;;;5054234;28;20229;-58
2023/11/27 04:58:41;;;;;;;7.80;6.05;;;4.30;99.90;;;;;;5054202;28;20210;-60
2023/11/27 05:01:08;;;;;;;8.75;6.32;;;4.30;99.90;;;;;;5054289;28;20321;-61
2023/11/27 05:03:35;;;;;;;8.52;5.80;;;4.30;99.90;;;;;;5054421;28;20732;-62
2023/11/27 05:06:03;;;;;;;5.72;5.22;;;4.20;99.90;;;;;;5054093;28;20211;-60
2023/11/27 05:08:30;;;;;;;7.65;6.20;;;4.30;99.90;;;;;;5054087;28;20210;-61
2023/11/27 05:10:57;;;;;;;6.53;5.57;;;4.20;99.90;;;;;;5053899;28;20585;-60
2023/11/27 05:13:24;;;;;;;7.47;5.80;;;4.30;99.90;;;;;;5054056;28;20230;-62
2023/11/27 05:15:52;;;;;;;7.18;6.57;;;4.30;99.90;;;;;;5054188;28;20297;-61
2023/11/27 05:18:19;;;;;;;9.45;5.93;;;4.30;99.90;;;;;;5053956;28;20302;-60
2023/11/27 05:20:46;;;;;;;10.93;6.55;;;4.30;99.90;;;;;;5053951;28;20764;-61
2023/11/27 05:23:13;;;;;;;9.70;6.07;;;4.30;99.90;;;;;;5053884;28;20583;-59
2023/11/27 05:25:40;;;;;;;8.63;6.05;;;4.30;99.90;;;;;;5053815;28;20207;-62
2023/11/27 05:28:07;;;;;;;8.70;6.43;;;4.30;99.90;;;;;;5053947;28;20304;-61
2023/11/27 05:30:34;;;;;;;8.00;6.05;;;4.20;99.90;;;;;;5053902;28;20687;-60
2023/11/27 05:33:02;;;;;;;6.05;5.45;;;4.30;99.90;;;;;;5053907;28;20238;-61
2023/11/27 05:35:29;;;;;;;8.90;6.35;;;4.30;99.90;;;;;;5053888;28;20228;-61
2023/11/27 05:37:56;;;;;;;10.45;6.70;;;4.30;99.90;;;;;;5053412;28;20316;-59
2023/11/27 05:40:23;;;;;;;9.32;6.00;;;4.20;99.90;;;;;;5053805;28;20229;-60
2023/11/27 05:42:50;;;;;;;7.50;5.35;;;4.30;99.90;;;;;;5053576;28;20296;-59
2023/11/27 05:45:17;;;;;;;6.95;6.35;;;4.30;99.90;;;;;;5053156;28;20293;-61
2023/11/27 05:47:44;;;;;;;6.18;5.65;;;4.20;99.90;;;;;;5053190;28;20229;-61
2023/11/27 05:50:13;;;;;;;7.32;6.35;;;4.20;99.90;;;;;;5053373;28;20312;-61
2023/11/27 05:52:40;;;;;;;7.40;5.82;;;4.20;99.90;;;;;;5053308;28;20234;-61
2023/11/27 05:55:07;;;;;;;7.03;6.32;;;4.20;99.90;;;;;;5053164;28;20297;-61
2023/11/27 05:57:34;;;;;;;12.07;6.72;;;4.20;99.90;;;;;;5053063;28;20290;-59
2023/11/27 06:00:02;;;;;;;7.32;6.18;;;4.20;99.90;;;;;;5053130;28;20230;-61
2023/11/27 06:02:29;;;;;;;8.05;5.80;;;4.20;99.90;;;;;;5053231;28;20233;-60
2023/11/27 06:04:56;;;;;;;12.18;6.50;;;4.20;99.90;;;;;;5053107;28;20675;-58
2023/11/27 06:07:24;;;;;;;6.50;5.82;;;4.20;99.90;;;;;;5053061;28;20210;-62
2023/11/27 06:09:51;;;;;;;7.47;6.00;;;4.20;99.90;;;;;;5052947;28;20234;-61
2023/11/27 06:12:18;;;;;;;6.32;5.82;;;4.20;99.90;;;;;;5053051;28;20737;-59
2023/11/27 06:14:45;;;;;;;7.07;6.38;;;4.20;99.90;;;;;;5052855;28;20202;-60
2023/11/27 06:17:12;;;;;;;6.70;5.15;;;4.20;99.90;;;;;;5052764;28;20213;-59
2023/11/27 06:19:39;;;;;;;7.00;6.35;;;4.20;99.90;;;;;;5052750;28;20233;-60
2023/11/27 06:22:06;;;;;;;8.02;6.57;;;4.20;99.90;;;;;;5052960;28;20215;-61
2023/11/27 06:24:34;;;;;;;7.13;6.53;;;4.20;99.90;;;;;;5052857;28;20206;-59
2023/11/27 06:27:01;;;;;;;10.77;8.05;;;4.20;99.90;;;;;;5052616;28;20597;-61
2023/11/27 06:29:28;;;;;;;8.60;6.43;;;4.20;99.90;;;;;;5052762;28;20405;-61
2023/11/27 06:31:55;;;;;;;6.93;6.25;;;4.20;99.90;;;;;;5052685;28;20206;-59
2023/11/27 06:34:22;;;;;;;6.35;5.72;;;4.20;99.90;;;;;;5052503;28;20222;-61
2023/11/27 06:36:49;;;;;;;7.95;6.60;;;4.20;99.90;;;;;;5052214;28;20218;-59
2023/11/27 06:39:16;;;;;;;9.35;7.57;;;4.20;99.90;;;;;;5052607;28;20202;-60
2023/11/27 06:41:44;;;;;;;12.75;7.65;;;4.20;99.90;;;;;;5052616;28;20202;-61
2023/11/27 06:44:13;;;;;;;9.38;7.15;;;4.20;99.90;;;;;;5052501;28;20202;-59
2023/11/27 06:46:41;;;;;;;8.13;7.32;;;4.20;99.90;;;;;;5051817;28;20206;-60
2023/11/27 06:49:09;;;;;;;8.52;6.85;;;4.20;99.90;;;;;;5052455;28;20202;-61
2023/11/27 06:51:36;;;;;;;7.05;6.35;;;4.20;99.90;;;;;;5052368;28;20715;-61
2023/11/27 06:54:04;;;;;;;8.93;6.60;;;4.20;99.90;;;;;;5052231;28;20230;-61
2023/11/27 06:56:33;;;;;;;7.80;6.60;;;4.20;99.90;;;;;;5051991;28;20581;-61
2023/11/27 06:59:02;;;;;;;9.68;6.43;;;4.20;99.90;;;;;;5052093;28;20210;-61
2023/11/27 07:01:29;;;;;;;6.43;5.82;;;4.20;99.90;;;;;;5051981;28;20333;-59
2023/11/27 07:03:57;;;;;;;8.85;6.82;;;4.20;99.90;;;;;;5052214;28;20198;-61
2023/11/27 07:06:23;;;;;;;7.65;6.85;;;4.20;99.90;;;;;;5051350;28;20207;-60
2023/11/27 07:08:50;;;;;;;5.93;5.40;;;4.20;99.90;;;;;;5051420;28;20593;-58
2023/11/27 07:11:17;;;;;;;6.65;6.05;;;4.20;99.90;;;;;;5044333;28;20245;-60
2023/11/27 07:13:44;;;;;;;7.38;6.47;;;4.20;99.90;;;;;;5051474;28;20233;-61
2023/11/27 07:16:13;;;;;;;9.43;6.18;;;4.10;99.90;;;;;;5051935;28;20309;-60
2023/11/27 07:18:39;;;;;;;7.50;6.47;;;4.10;99.90;;;;;;5051743;28;20792;-59
2023/11/27 07:21:07;;;;;;;8.25;6.78;;;4.10;99.90;;;;;;5051738;28;20222;-61
2023/11/27 07:23:34;;;;;;;7.93;5.55;;;4.10;99.90;;;;;;5051724;28;20202;-60
2023/11/27 07:26:01;;;;;;;6.93;6.05;;;4.10;99.90;;;;;;5051553;28;20203;-61
2023/11/27 07:28:27;;;;;;;11.02;6.15;;;4.20;99.90;;;;;;5051368;28;20206;-60
2023/11/27 07:30:55;;;;;;;10.10;7.07;;;4.20;99.90;;;;;;5051689;28;20316;-60
2023/11/27 07:33:24;;;;;;;7.13;5.85;;;4.20;99.90;;;;;;5051425;28;20222;-61
2023/11/27 07:35:50;;;;;;;8.77;8.00;;;4.10;99.90;;;;;;5051525;28;20301;-61
2023/11/27 07:38:17;;;;;;;5.50;4.30;;;4.20;99.90;;;;;;5051330;28;20935;-60
2023/11/27 07:40:44;;;;;;;7.07;5.65;;;4.20;99.90;;;;;;5051335;28;20223;-61
2023/11/27 07:43:11;;;;;;;12.32;5.38;;;4.20;99.90;;;;;;5051405;28;20198;-61
2023/11/27 07:45:38;;;;;;;6.57;4.82;;;4.20;99.90;;;;;;5051466;28;20225;-61
2023/11/27 07:48:05;;;;;;;6.03;5.43;;;4.30;99.90;;;;;;5051333;28;20212;-60
2023/11/27 07:50:33;;;;;;;6.15;5.57;;;4.20;99.90;;;;;;5051207;28;20237;-60
2023/11/27 07:53:00;;;;;;;9.73;6.32;;;4.30;99.90;;;;;;5050747;28;20297;-60
2023/11/27 07:55:27;;;;;;;5.22;4.72;;;4.30;99.90;;;;;;5050934;28;20293;-60
2023/11/27 07:57:54;;;;;;;8.02;4.70;;;4.30;99.90;;;;;;5051123;28;20646;-59
2023/11/27 08:00:26;;;;;;;6.38;5.53;;;4.30;99.90;;;;;;5051055;28;20594;-60
2023/11/27 08:02:53;;;;;;;5.55;4.82;;;4.30;99.90;;;;;;5051227;28;20202;-60
2023/11/27 08:05:22;;;;;;;6.20;5.70;;;4.40;99.90;;;;;;5051169;28;20213;-59
2023/11/27 08:07:50;;;;;;;5.13;4.72;;;4.40;99.90;;;;;;5050736;28;20209;-58
2023/11/27 08:10:17;;;;;;;6.03;5.53;;;4.40;99.90;;;;;;5051004;28;20709;-60
2023/11/27 08:12:44;;;;;;;8.60;4.75;;;4.40;99.90;;;;;;5050987;28;20740;-60
2023/11/27 08:15:18;;;;;;;8.85;4.57;;;4.40;99.90;;;;;;5050912;28;20218;-61
2023/11/27 08:17:44;;;;;;;7.78;4.40;;;4.40;99.90;;;;;;5050720;28;20226;-61
2023/11/27 08:20:14;;;;;;;6.68;5.15;;;4.40;99.90;;;;;;5050782;28;20743;-60
2023/11/27 08:22:42;;;;;;;6.20;4.50;;;4.50;99.90;;;;;;5051618;28;20684;-58
2023/11/27 08:25:11;;;;;;;9.77;6.65;;;4.50;99.90;;;;;;5054683;28;20205;-59
2023/11/27 08:27:39;;;;;;;8.15;5.50;;;4.50;99.90;;;;;;5054618;28;20214;-60
2023/11/27 08:30:09;;;;;;;7.25;6.55;;;4.50;99.90;;;;;;5054840;28;20226;-60
2023/11/27 08:32:37;;;;;;;10.15;5.20;;;4.50;99.90;;;;;;5055026;28;20255;-61
2023/11/27 08:35:05;;;;;;;8.05;6.15;;;4.50;99.90;;;;;;5054678;28;20605;-58
2023/11/27 08:37:35;;;;;;;6.68;6.05;;;4.50;99.90;;;;;;5054766;28;20646;-60
2023/11/27 08:40:07;;;;;;;8.05;5.13;;;4.50;99.90;;;;;;5054779;28;20716;-61
2023/11/27 08:42:36;;;;;;;6.45;5.03;;;4.50;99.90;;;;;;5079770;22;20293;-57
2023/11/27 08:45:10;;;;;;;9.55;5.93;;;4.60;99.90;;;;;;5054176;28;20218;-60
2023/11/27 08:47:37;;;;;;;8.77;5.80;;;4.60;99.90;;;;;;5054109;28;20248;-58
2023/11/27 08:50:05;;;;;;;6.35;5.78;;;4.60;99.90;;;;;;5054937;28;20576;-59
2023/11/27 08:52:32;;;;;;;5.85;5.35;;;4.60;99.90;;;;;;5054951;28;20264;-59
2023/11/27 08:54:59;;;;;;;7.75;5.18;;;4.60;99.90;;;;;;5054554;28;20223;-58
2023/11/27 08:57:25;;;;;;;8.73;4.60;;;4.70;99.90;;;;;;5053327;28;20202;-61
2023/11/27 08:59:54;;;;;;;8.20;6.63;;;4.70;99.90;;;;;;5054645;28;20217;-59
2023/11/27 09:02:21;;;;;;;5.85;5.25;;;4.70;99.90;;;;;;5054583;28;20203;-60
2023/11/27 09:04:49;;;;;;;6.53;4.80;;;4.70;99.90;;;;;;5052930;28;20638;-57
2023/11/27 09:07:15;;;;;;;7.53;6.88;;;4.80;99.90;;;;;;5054013;28;20206;-60
2023/11/27 09:09:43;;;;;;;5.18;4.45;;;4.80;99.90;;;;;;5053860;28;20301;-60
2023/11/27 09:12:10;;;;;;;9.00;4.70;;;4.80;99.90;;;;;;5054919;28;20202;-60
2023/11/27 09:14:36;;;;;;;5.18;4.78;;;4.80;99.90;;;;;;5053954;28;20245;-60
2023/11/27 09:17:05;;;;;;;5.20;4.75;;;4.80;99.90;;;;;;5054001;28;20734;-60
2023/11/27 09:19:32;;;;;;;5.10;4.60;;;4.80;99.90;;;;;;5054102;28;20207;-59
2023/11/27 09:22:00;;;;;;;8.07;5.43;;;4.80;99.90;;;;;;5054702;28;20210;-60
2023/11/27 09:24:27;;;;;;;7.78;4.10;;;4.80;99.90;;;;;;5054633;28;20611;-60
2023/11/27 09:26:54;;;;;;;4.70;4.30;;;4.80;99.90;;;;;;5054389;28;20226;-60
2023/11/27 09:29:22;;;;;;;4.00;3.20;;;4.80;99.90;;;;;;5054218;28;20198;-60
2023/11/27 09:31:49;;;;;;;6.50;4.72;;;4.80;99.90;;;;;;5053291;28;20724;-60
2023/11/27 09:34:18;;;;;;;8.25;4.40;;;4.80;99.90;;;;;;5054358;28;20283;-59
2023/11/27 09:36:44;;;;;;;7.00;4.85;;;4.80;99.90;;;;;;5053341;28;20582;-60
2023/11/27 09:39:11;;;;;;;10.18;5.53;;;4.80;99.90;;;;;;5053769;28;20629;-60
2023/11/27 09:41:39;;;;;;;5.25;4.80;;;4.80;99.90;;;;;;5054184;28;20277;-60
2023/11/27 09:44:06;;;;;;;11.23;5.53;;;4.80;99.90;;;;;;5053531;28;20231;-60
2023/11/27 09:46:33;;;;;;;6.65;5.68;;;4.80;99.90;;;;;;5052931;28;20206;-60
2023/11/27 09:49:02;;;;;;;5.35;4.03;;;4.80;99.90;;;;;;5053662;28;20213;-59
2023/11/27 09:51:33;;;;;;;8.93;4.68;;;4.90;99.90;;;;;;5052973;28;20210;-60
2023/11/27 09:54:04;;;;;;;4.35;3.80;;;4.90;99.90;;;;;;5053232;28;20588;-60
2023/11/27 09:56:33;;;;;;;9.52;5.57;;;4.90;99.90;;;;;;5052983;28;20213;-60
2023/11/27 09:59:02;;;;;;;5.88;4.85;;;4.90;99.90;;;;;;5051907;28;20286;-60
2023/11/27 10:01:30;;;;;;;6.07;4.13;;;4.90;99.90;;;;;;5052699;28;20271;-61
2023/11/27 10:03:59;;;;;;;5.20;4.05;;;4.80;99.90;;;;;;5052400;28;20234;-60
2023/11/27 10:06:29;;;;;;;5.45;4.20;;;4.80;99.90;;;;;;5052841;28;20268;-60
2023/11/27 10:09:07;;;;;;;6.10;5.10;;;4.80;99.90;;;;;;5052886;28;20202;-60
2023/11/27 10:11:35;;;;;;;4.70;3.65;;;4.80;99.90;;;;;;5053001;28;20330;-60
2023/11/27 10:14:05;;;;;;;5.90;4.43;;;4.80;99.90;;;;;;5052648;28;20237;-60
2023/11/27 10:16:33;;;;;;;4.57;4.18;;;4.80;99.90;;;;;;5052381;28;20214;-60
2023/11/27 10:19:05;;;;;;;5.68;4.60;;;4.80;99.90;;;;;;5050820;28;20210;-58
2023/11/27 10:21:33;;;;;;;4.18;3.83;;;4.70;99.90;;;;;;5050980;28;20210;-60
2023/11/27 10:24:01;;;;;;;4.43;3.92;;;4.70;99.90;;;;;;5051196;28;20598;-60
2023/11/27 10:26:30;;;;;;;4.20;3.80;;;4.70;99.90;;;;;;5051168;28;20211;-59
2023/11/27 10:28:58;;;;;;;4.50;4.10;;;4.70;99.90;;;;;;5051532;28;20214;-60
2023/11/27 10:31:26;;;;;;;9.32;5.40;;;4.70;99.90;;;;;;5051667;28;20194;-60
2023/11/27 10:33:53;;;;;;;5.22;4.32;;;4.70;99.90;;;;;;5051399;28;20250;-60
2023/11/27 10:36:23;;;;;;;6.05;3.83;;;4.70;99.90;;;;;;5052231;28;21004;-60
2023/11/27 10:39:08;;;;;;;3.75;3.47;;;4.70;99.90;;;;;;5050535;28;20207;-59
2023/11/27 10:41:36;;;;;;;5.10;3.55;;;4.80;99.90;;;;;;5051208;28;20303;-60
2023/11/27 10:44:04;;;;;;;3.92;3.53;;;4.80;99.90;;;;;;5050362;28;20261;-60
2023/11/27 10:46:31;;;;;;;4.45;4.10;;;4.80;99.90;;;;;;5050754;28;20289;-60
2023/11/27 10:49:00;;;;;;;3.22;2.97;;;4.80;99.90;;;;;;5051048;28;20202;-60
2023/11/27 10:51:31;;;;;;;4.00;3.08;;;4.80;99.90;;;;;;5051545;28;20575;-60
2023/11/27 10:53:59;;;;;;;2.72;2.55;;;4.80;99.90;;;;;;5050276;28;20234;-60
2023/11/27 10:56:30;;;;;;;4.30;3.50;;;4.80;99.90;;;;;;5051311;28;20206;-61
2023/11/27 10:59:04;;;;;;;5.40;3.22;;;4.90;99.90;;;;;;5047322;28;20211;-60
2023/11/27 11:01:35;;;;;;;4.30;3.53;;;5.00;99.90;;;;;;5051178;28;20591;-60
2023/11/27 11:04:09;;;;;;;3.53;3.20;;;5.00;99.90;;;;;;5048657;28;20336;-60
2023/11/27 11:06:40;;;;;;;4.25;3.95;;;5.00;99.90;;;;;;5050691;28;20293;-60
2023/11/27 11:09:12;;;;;;;5.38;3.35;;;5.00;99.90;;;;;;5044007;28;20209;-60
2023/11/27 11:11:42;;;;;;;3.97;2.90;;;5.00;99.90;;;;;;5050954;28;20210;-60
2023/11/27 11:14:13;;;;;;;4.63;3.40;;;5.00;99.90;;;;;;5049638;28;20250;-60
2023/11/27 11:16:44;;;;;;;5.28;3.80;;;5.00;99.90;;;;;;5050380;28;20210;-60
2023/11/27 11:19:18;;;;;;;6.45;4.05;;;5.10;99.90;;;;;;5042941;28;20199;-60
2023/11/27 11:21:57;;;;;;;4.53;4.13;;;5.00;99.90;;;;;;5049991;28;20205;-60
2023/11/27 11:24:29;;;;;;;3.67;3.35;;;5.00;99.90;;;;;;5047312;28;20229;-60
2023/11/27 11:27:16;;;;;;;4.13;2.90;;;5.00;99.90;;;;;;5050934;28;21784;-60
2023/11/27 11:29:44;;;;;;;7.20;2.92;;;5.00;99.90;;;;;;5047224;28;20572;-59
2023/11/27 11:32:16;;;;;;;3.03;2.80;;;5.00;99.90;;;;;;5042191;28;20202;-60
2023/11/27 11:34:44;;;;;;;3.75;3.45;;;4.90;99.90;;;;;;5049941;28;20230;-60
2023/11/27 11:37:14;;;;;;;2.92;2.65;;;4.90;99.90;;;;;;5041615;28;21015;-60
2023/11/27 11:39:46;;;;;;;3.28;3.00;;;4.90;99.90;;;;;;5049502;28;20202;-59
2023/11/27 11:42:17;;;;;;;5.43;4.95;;;4.80;99.90;;;;;;5036165;28;21257;-60
2023/11/27 11:45:14;;;;;;;5.30;3.45;;;4.80;99.90;;;;;;5046572;28;20234;-61
2023/11/27 11:47:42;;;;;;;4.10;3.83;;;4.80;99.90;;;;;;5046066;28;20655;-59
2023/11/27 11:50:28;;;;;;;3.50;3.20;;;4.70;99.90;;;;;;5049916;28;20210;-58
2023/11/27 11:52:57;;;;;;;3.20;3.00;;;4.70;99.90;;;;;;5044109;28;20664;-61
2023/11/27 11:55:25;;;;;;;4.32;3.40;;;4.60;99.90;;;;;;5050522;28;20222;-60
2023/11/27 11:57:57;;;;;;;4.30;3.30;;;4.60;99.90;;;;;;5049183;28;20716;-60
2023/11/27 12:00:24;;;;;;;3.70;3.35;;;4.60;99.90;;;;;;5049260;28;20661;-59
2023/11/27 12:02:54;;;;;;;3.65;3.35;;;4.50;99.90;;;;;;5050251;28;20269;-60
2023/11/27 12:05:22;;;;;;;3.22;3.03;;;4.50;99.90;;;;;;5050722;28;20201;-60
2023/11/27 12:07:50;;;;;;;4.78;3.30;;;4.50;99.90;;;;;;5050174;28;20218;-60
2023/11/27 12:10:18;;;;;;;4.97;3.65;;;4.50;99.90;;;;;;5050279;28;20290;-60
2023/11/27 12:12:48;;;;;;;3.22;2.90;;;4.50;99.90;;;;;;5050031;28;20707;-60
2023/11/27 12:15:17;;;;;;;4.88;4.47;;;4.40;99.90;;;;;;5049955;28;20246;-57
2023/11/27 12:17:48;;;;;;;4.68;4.38;;;4.50;99.90;;;;;;5049803;28;20202;-59
2023/11/27 12:20:21;;;;;;;4.88;4.20;;;4.50;99.90;;;;;;5049579;28;20214;-59
2023/11/27 12:22:48;;;;;;;7.50;4.00;;;4.50;99.90;;;;;;5050039;28;20309;-58
2023/11/27 12:25:18;;;;;;;6.50;3.78;;;4.40;99.90;;;;;;5050223;28;20302;-59
2023/11/27 12:27:45;;;;;;;3.78;3.47;;;4.40;99.90;;;;;;5050045;28;20221;-57
2023/11/27 12:30:17;;;;;;;4.40;4.00;;;4.40;99.90;;;;;;5050009;28;20237;-60
2023/11/27 12:32:47;;;;;;;4.43;3.38;;;4.40;99.90;;;;;;5050133;28;20696;-60
2023/11/27 12:35:15;;;;;;;4.82;4.43;;;4.30;99.90;;;;;;5049611;28;20218;-60
2023/11/27 12:37:45;;;;;;;2.83;2.60;;;4.30;99.90;;;;;;5049902;28;20199;-60
2023/11/27 12:40:17;;;;;;;3.80;3.50;;;4.20;99.90;;;;;;5049877;28;20580;-60
2023/11/27 12:42:45;;;;;;;4.20;2.58;;;4.20;99.90;;;;;;5049776;28;20625;-60
2023/11/27 12:45:12;;;;;;;3.00;2.60;;;4.10;99.90;;;;;;5049857;28;20204;-59
2023/11/27 12:47:39;;;;;;;3.20;3.00;;;4.10;99.90;;;;;;5049431;28;20194;-60
2023/11/27 12:50:22;;;;;;;3.55;3.22;;;4.00;99.90;;;;;;5049718;28;20301;-60
2023/11/27 12:52:49;;;;;;;3.50;3.20;;;4.00;99.90;;;;;;5049021;28;20826;-60
2023/11/27 12:55:16;;;;;;;3.58;3.05;;;4.00;99.90;;;;;;5049709;28;20329;-60
2023/11/27 12:57:45;;;;;;;2.85;2.65;;;3.90;99.90;;;;;;5049299;28;20297;-59
2023/11/27 13:00:14;;;;;;;3.40;3.10;;;3.90;99.90;;;;;;5049591;28;20203;-61